This is the latest recevied weather packets stored in our database for station/object M9XDX-WX. If no packets are shown the sender has not sent any weather packets the latest 10 day(s).
| Time | Temp. | Humidity | Pressure | Rain* | Wind** | Luminosity | Snow |
|---|---|---|---|---|---|---|---|
| 1777282203 | 16.11° C | 60% | 1024.1 hPa | 0 mm | - | 550 W/m² | - |
| 1777278003 | 13.33° C | 65% | 1024.2 hPa | 0 mm | - | 374 W/m² | - |
| 1777275003 | 12.22° C | 71% | 1024 hPa | 0 mm | - | 298 W/m² | - |
| 1777271403 | 10.56° C | 71% | 1023.7 hPa | 0 mm | - | 99 W/m² | - |
| 1777270803 | 10.56° C | 71% | 1024 hPa | 0 mm | - | 89 W/m² | - |
| 1777264803 | 8.33° C | 78% | 1023.3 hPa | 0 mm | - | 1 W/m² | - |
| 1777263603 | 8.33° C | 78% | 1023.6 hPa | 0 mm | - | 0 W/m² | - |
| 1777261803 | 8.33° C | 78% | 1023.5 hPa | 0 mm | - | 0 W/m² | - |
| 1777258803 | 9.44° C | 75% | 1023.2 hPa | 0 mm | - | 0 W/m² | - |
| 1777258340 | 9.44° C | 74% | 1023.4 hPa | 0 mm | - | 0 W/m² | - |
| 1777256403 | 10° C | 71% | 1023.4 hPa | 0 mm | - | 0 W/m² | - |
| 1777251603 | 10.56° C | 71% | 1023.4 hPa | 0 mm | - | 0 W/m² | - |
| 1777248603 | 11.67° C | 67% | 1023.7 hPa | 0 mm | - | 0 W/m² | - |
| 1777246203 | 12.22° C | 63% | 1023.4 hPa | 0 mm | - | 0 W/m² | - |
| 1777243937 | 13.33° C | 57% | 1023.3 hPa | 0 mm | - | 0 W/m² | - |
| 1777237803 | 13.89° C | 55% | 1022.8 hPa | 0 mm | - | 0 W/m² | - |
| 1777236603 | 13.33° C | 56% | 1023 hPa | 0 mm | - | 0 W/m² | - |
| 1777233603 | 14.44° C | 51% | 1022.6 hPa | 0 mm | - | 0 W/m² | - |
| 1777230603 | 15.56° C | 49% | 1022.1 hPa | 0 mm | - | 9 W/m² | - |
| 1777228803 | 16.67° C | 42% | 1022.2 hPa | 0 mm | - | 39 W/m² | - |
| 1777228203 | 17.22° C | 37% | 1022.1 hPa | 0 mm | - | 47 W/m² | - |
| 1777226403 | 17.78° C | 36% | 1022 hPa | 0 mm | - | 65 W/m² | - |
| 1777225803 | 17.78° C | 34% | 1022 hPa | 0 mm | - | 69 W/m² | - |
| 1777219940 | 20° C | 25% | 1022 hPa | 0 mm | - | 262 W/m² | - |
| 1777219203 | 20° C | 26% | 1022.1 hPa | 0 mm | - | 273 W/m² | - |
* Rain latest hour (hover to see other rain measurements)
** Current wind speed in m/s (hover to see current wind gust speed)